Time;durP1;ratioP1;P1;durP2;ratioP2;P2;SDS_P1;SDS_P2;PMS_P1;PMS_P2;Temp;Humidity;BMP_temperature;BMP_pressure;BME280_temperature;BME280_humidity;BME280_pressure;Samples;Min_cycle;Max_cycle;Signal;HPM_P1;HPM_P2
2022/12/23 00:01:05;;;;;;;35.90;24.97;;;;;;;9.16;100.00;100182.28;4835249;29;20035;-91
2022/12/23 00:03:31;;;;;;;36.90;24.80;;;;;;;9.12;100.00;100179.16;4835132;29;20052;-91
2022/12/23 00:05:57;;;;;;;38.23;25.27;;;;;;;9.10;100.00;100182.09;4837480;29;20812;-91
2022/12/23 00:08:23;;;;;;;34.40;24.43;;;;;;;9.10;100.00;100184.78;4832215;29;20037;-91
2022/12/23 00:10:50;;;;;;;35.43;25.47;;;;;;;9.11;100.00;100178.34;4830117;29;20034;-91
2022/12/23 00:16:05;;;;;;;37.40;24.87;;;;;;;9.17;100.00;100192.03;4849461;29;21670;-87
2022/12/23 00:18:31;;;;;;;36.03;24.83;;;;;;;9.13;100.00;100197.84;4837237;29;20084;-87
2022/12/23 00:21:01;;;;;;;37.67;26.70;;;;;;;9.16;100.00;100196.59;4833466;29;20030;-87
2022/12/23 00:23:27;;;;;;;34.00;25.50;;;;;;;9.16;100.00;100191.19;4839224;29;20033;-87
2022/12/23 00:25:53;;;;;;;36.70;27.23;;;;;;;9.16;100.00;100195.78;4831765;29;20420;-87
2022/12/23 00:28:22;;;;;;;34.17;27.23;;;;;;;9.18;100.00;100199.09;4852630;29;20080;-87
2022/12/23 00:30:50;;;;;;;35.67;27.73;;;;;;;9.16;100.00;100201.19;4835786;29;20039;-88
2022/12/23 00:33:18;;;;;;;34.27;26.90;;;;;;;9.17;100.00;100194.75;4848741;29;20138;-87
2022/12/23 00:35:44;;;;;;;33.93;27.00;;;;;;;9.18;100.00;100205.34;4836163;29;20049;-87
2022/12/23 00:38:10;;;;;;;36.03;27.80;;;;;;;9.22;100.00;100206.56;4837063;29;20100;-87
2022/12/23 00:43:19;;;;;;;30.95;27.63;;;;;;;9.19;100.00;100217.78;4848133;29;20124;-87
2022/12/23 00:45:45;;;;;;;34.33;27.60;;;;;;;9.20;100.00;100214.03;4845194;29;20030;-86
2022/12/23 00:50:54;;;;;;;34.25;29.13;;;;;;;9.17;100.00;100214.47;4851562;29;20049;-91
2022/12/23 00:53:20;;;;;;;35.70;27.73;;;;;;;9.18;100.00;100224.25;4822178;29;20046;-87
2022/12/23 00:55:49;;;;;;;35.20;29.77;;;;;;;9.15;100.00;100230.06;4834925;29;20193;-87
2022/12/23 00:58:16;;;;;;;35.87;28.93;;;;;;;9.16;100.00;100239.03;4849263;29;20603;-91
2022/12/23 01:06:10;;;;;;;31.70;26.17;;;;;;;9.15;100.00;100238.19;4852546;29;20121;-91
2022/12/23 01:08:36;;;;;;;31.33;25.33;;;;;;;9.12;100.00;100244.03;4854570;29;20452;-87
2022/12/23 01:11:06;;;;;;;32.10;25.47;;;;;;;9.15;100.00;100248.16;4835765;29;20478;-91
2022/12/23 01:13:32;;;;;;;33.50;25.23;;;;;;;9.15;100.00;100249.00;4836075;29;20025;-91
2022/12/23 01:16:07;;;;;;;32.27;24.50;;;;;;;9.15;100.00;100248.16;4828205;29;20125;-87
2022/12/23 01:18:34;;;;;;;31.90;23.83;;;;;;;9.15;100.00;100254.41;4838837;29;20103;-88
2022/12/23 01:21:02;;;;;;;32.43;23.87;;;;;;;9.16;100.00;100250.66;4851015;29;20025;-87
2022/12/23 01:23:27;;;;;;;31.57;23.40;;;;;;;9.12;100.00;100249.44;4835389;29;20423;-88
2022/12/23 01:25:58;;;;;;;31.80;23.47;;;;;;;9.10;100.00;100255.06;4838188;29;20021;-87
2022/12/23 01:28:24;;;;;;;30.30;22.43;;;;;;;9.13;100.00;100261.91;4833722;29;20072;-87
2022/12/23 01:30:50;;;;;;;34.10;23.67;;;;;;;9.07;100.00;100241.13;4836511;29;20037;-87
2022/12/23 01:33:15;;;;;;;36.23;24.73;;;;;;;9.11;100.00;100250.47;4838114;29;20029;-87
2022/12/23 01:35:40;;;;;;;33.97;24.30;;;;;;;9.10;100.00;100256.94;4840673;29;20136;-88
2022/12/23 01:38:06;;;;;;;32.97;23.53;;;;;;;9.09;100.00;100241.75;4818219;29;20033;-91
2022/12/23 01:40:36;;;;;;;33.47;23.27;;;;;;;9.08;100.00;100254.47;4847447;29;20056;-91
2022/12/23 01:43:01;;;;;;;33.03;23.17;;;;;;;9.09;100.00;100252.56;4834700;29;20029;-88
2022/12/23 01:45:29;;;;;;;34.63;23.30;;;;;;;9.11;100.00;100258.56;4834628;29;20090;-88
2022/12/23 01:48:20;;;;;;;35.57;24.30;;;;;;;9.11;100.00;100264.84;4831347;29;20025;-88
2022/12/23 01:50:52;;;;;;;34.43;23.73;;;;;;;9.10;100.00;100267.75;4840926;29;20048;-91
2022/12/23 01:53:34;;;;;;;33.27;23.80;;;;;;;9.13;100.00;100267.31;4837853;29;20060;-91
2022/12/23 01:56:15;;;;;;;35.67;24.17;;;;;;;9.11;100.00;100266.69;4840011;29;20025;-88
2022/12/23 01:58:53;;;;;;;34.03;23.90;;;;;;;9.10;100.00;100273.97;4852637;29;20034;-87
2022/12/23 02:04:05;;;;;;;;;;;;;;;9.15;100.00;100280.59;4855499;29;20104;-87
2022/12/23 02:09:26;;;;;;;35.37;24.37;;;;;;;9.08;100.00;100296.84;4850678;29;20053;-90
2022/12/23 02:12:16;;;;;;;33.20;24.47;;;;;;;9.06;100.00;100293.56;4853464;29;20109;-89
2022/12/23 02:18:29;;;;;;;35.53;24.30;;;;;;;9.04;100.00;100312.66;4853919;29;20087;-90
2022/12/23 02:21:45;;;;;;;35.63;25.43;;;;;;;9.08;100.00;100302.25;4854627;29;20030;-90
2022/12/23 02:24:38;;;;;;;34.63;24.97;;;;;;;9.03;100.00;100293.97;4811833;29;20030;-90
2022/12/23 02:27:15;;;;;;;35.07;25.03;;;;;;;9.06;100.00;100304.38;4853759;29;20036;-91
2022/12/23 02:30:18;;;;;;;34.27;24.73;;;;;;;9.05;100.00;100303.50;4831938;29;20051;-88
2022/12/23 02:32:56;;;;;;;32.50;23.43;;;;;;;9.07;100.00;100312.25;4841735;29;20066;-88
2022/12/23 02:35:43;;;;;;;33.47;23.57;;;;;;;9.08;100.00;100318.47;4854333;29;20089;-91
2022/12/23 02:38:13;;;;;;;33.23;22.67;;;;;;;9.04;100.00;100317.25;4835084;29;20044;-91
2022/12/23 02:41:08;;;;;;;32.90;23.00;;;;;;;9.07;100.00;100323.06;4841671;29;20045;-88
2022/12/23 02:43:46;;;;;;;32.23;23.00;;;;;;;9.05;100.00;100332.44;4851011;29;20021;-87
2022/12/23 02:46:30;;;;;;;31.40;22.23;;;;;;;9.04;100.00;100338.88;4849168;29;20305;-91
2022/12/23 02:49:03;;;;;;;26.92;20.52;;;;;;;9.05;100.00;100340.53;4854092;29;20082;-91
2022/12/23 02:51:35;;;;;;;30.37;22.43;;;;;;;9.04;100.00;100347.78;4832394;29;20463;-90
2022/12/23 02:54:05;;;;;;;28.17;21.13;;;;;;;9.06;100.00;100363.81;4838318;29;20029;-90
2022/12/23 02:56:34;;;;;;;29.93;21.13;;;;;;;9.07;100.00;100362.75;4833546;29;21034;-87
2022/12/23 02:59:14;;;;;;;27.47;20.33;;;;;;;9.07;100.00;100363.59;4840270;29;20057;-88
2022/12/23 03:01:41;;;;;;;27.60;19.63;;;;;;;9.07;100.00;100365.47;4837754;29;20072;-90
2022/12/23 03:04:07;;;;;;;24.13;18.17;;;;;;;9.09;100.00;100375.00;4837730;29;20025;-88
2022/12/23 03:06:39;;;;;;;26.47;18.70;;;;;;;9.07;100.00;100373.56;4840214;29;20598;-87
2022/12/23 03:09:05;;;;;;;24.53;18.00;;;;;;;9.08;100.00;100359.00;4845637;29;21915;-88
2022/12/23 03:11:50;;;;;;;25.23;18.23;;;;;;;9.06;100.00;100363.81;4847918;29;20034;-87
2022/12/23 03:14:19;;;;;;;24.17;17.07;;;;;;;9.08;100.00;100364.41;4833896;29;20034;-88
2022/12/23 03:16:59;;;;;;;23.87;17.10;;;;;;;9.05;100.00;100364.84;4854676;29;20104;-87
2022/12/23 03:19:41;;;;;;;23.07;16.83;;;;;;;9.04;100.00;100355.09;4849171;29;20106;-87
2022/12/23 03:22:39;;;;;;;23.10;17.70;;;;;;;9.07;100.00;100360.06;4836047;29;20029;-88
2022/12/23 03:25:14;;;;;;;25.83;18.10;;;;;;;9.06;100.00;100347.59;4840468;29;20120;-87
2022/12/23 03:27:50;;;;;;;26.50;18.60;;;;;;;9.05;100.00;100356.75;4854170;29;20116;-87
2022/12/23 03:30:18;;;;;;;25.40;18.50;;;;;;;9.02;100.00;100357.19;4852875;29;20056;-88
2022/12/23 03:32:49;;;;;;;27.77;19.90;;;;;;;8.99;100.00;100352.19;4834056;29;20981;-90
2022/12/23 03:35:19;;;;;;;27.67;20.13;;;;;;;9.01;100.00;100358.22;4833959;29;20050;-90
2022/12/23 03:37:48;;;;;;;27.57;19.63;;;;;;;9.01;100.00;100360.91;4853936;29;20029;-90
2022/12/23 03:40:19;;;;;;;27.63;19.33;;;;;;;9.02;100.00;100362.59;4849726;29;20032;-87
2022/12/23 03:42:49;;;;;;;29.27;20.13;;;;;;;9.01;100.00;100355.50;4848373;29;20029;-87
2022/12/23 03:45:34;;;;;;;31.13;22.20;;;;;;;8.99;100.00;100357.59;4834910;29;20102;-88
2022/12/23 03:48:29;;;;;;;30.88;21.10;;;;;;;8.98;100.00;100361.34;4834402;29;20459;-87
2022/12/23 03:50:59;;;;;;;30.90;21.10;;;;;;;8.96;100.00;100361.53;4810476;29;20038;-88
2022/12/23 03:53:33;;;;;;;30.93;21.47;;;;;;;8.98;100.00;100362.16;4848006;29;20034;-91
2022/12/23 03:56:03;;;;;;;30.65;21.80;;;;;;;8.96;100.00;100356.13;4835391;29;20066;-88
2022/12/23 03:58:52;;;;;;;28.40;20.47;;;;;;;9.00;100.00;100365.47;4850393;29;21866;-88
2022/12/23 04:01:23;;;;;;;31.47;21.00;;;;;;;8.98;100.00;100364.88;4836245;29;20194;-88
2022/12/23 04:04:05;;;;;;;32.00;22.47;;;;;;;8.96;100.00;100364.25;4848459;29;20029;-88
2022/12/23 04:06:54;;;;;;;31.03;21.60;;;;;;;8.98;100.00;100366.75;4856031;29;20030;-88
2022/12/23 04:09:24;;;;;;;28.77;20.30;;;;;;;8.94;100.00;100369.88;4834046;29;20125;-88
2022/12/23 04:11:51;;;;;;;27.93;20.30;;;;;;;8.98;100.00;100378.38;4851561;29;20033;-87
2022/12/23 04:14:20;;;;;;;28.87;20.13;;;;;;;8.95;100.00;100374.22;4848860;29;20029;-88
2022/12/23 04:16:48;;;;;;;29.83;19.93;;;;;;;8.91;100.00;100375.69;4838388;29;20063;-91
2022/12/23 04:19:13;;;;;;;27.40;19.73;;;;;;;8.95;100.00;100387.75;4832816;29;20026;-91
2022/12/23 04:21:39;;;;;;;27.30;19.53;;;;;;;8.94;100.00;100380.66;4849829;29;20112;-88
2022/12/23 04:24:05;;;;;;;29.33;20.00;;;;;;;8.90;100.00;100379.44;4833862;29;20121;-88
2022/12/23 04:26:30;;;;;;;27.20;18.40;;;;;;;8.89;100.00;100382.34;4847753;29;20117;-88
2022/12/23 04:28:56;;;;;;;28.50;19.33;;;;;;;8.91;100.00;100389.22;4834227;29;20033;-90
2022/12/23 04:31:21;;;;;;;31.30;20.00;;;;;;;8.87;100.00;100396.09;4838965;29;20034;-88
2022/12/23 04:33:47;;;;;;;29.77;20.03;;;;;;;8.87;100.00;100401.47;4840811;29;20030;-88
2022/12/23 04:36:13;;;;;;;31.10;19.97;;;;;;;8.85;100.00;100400.84;4812598;29;20069;-88
2022/12/23 04:38:38;;;;;;;29.33;19.90;;;;;;;8.84;100.00;100395.66;4825130;29;20025;-88
2022/12/23 04:41:03;;;;;;;33.07;20.87;;;;;;;8.85;100.00;100408.97;4821927;29;20113;-88
2022/12/23 04:43:29;;;;;;;32.27;21.53;;;;;;;8.83;100.00;100402.94;4822049;29;20114;-88
2022/12/23 04:45:57;;;;;;;32.20;22.40;;;;;;;8.84;100.00;100407.31;4806037;29;20074;-87
2022/12/23 04:48:22;;;;;;;34.60;23.90;;;;;;;8.83;100.00;100402.13;4827804;29;20414;-90
2022/12/23 04:50:48;;;;;;;38.77;23.97;;;;;;;8.84;100.00;100407.31;4834324;29;20034;-90
2022/12/23 04:53:13;;;;;;;35.90;23.87;;;;;;;8.85;100.00;100402.72;4828113;29;20145;-90
2022/12/23 04:55:38;;;;;;;37.33;23.07;;;;;;;8.82;100.00;100395.88;4818209;29;20460;-90
2022/12/23 04:58:04;;;;;;;34.60;22.87;;;;;;;8.84;100.00;100388.41;4820899;29;20026;-90
2022/12/23 05:00:29;;;;;;;31.90;21.53;;;;;;;8.83;100.00;100386.75;4836195;29;20037;-88
2022/12/23 05:02:55;;;;;;;35.67;22.00;;;;;;;8.82;100.00;100381.56;4834909;29;20105;-88
2022/12/23 05:05:20;;;;;;;32.30;21.70;;;;;;;8.82;100.00;100382.38;4836416;29;20121;-88
2022/12/23 05:07:49;;;;;;;32.87;22.00;;;;;;;8.85;100.00;100373.84;4821999;29;20042;-88
2022/12/23 05:10:15;;;;;;;32.77;20.93;;;;;;;8.82;100.00;100373.44;4818428;29;20866;-88
2022/12/23 05:12:40;;;;;;;31.23;21.07;;;;;;;8.84;100.00;100374.06;4835954;29;20034;-91
2022/12/23 05:15:07;;;;;;;31.83;22.00;;;;;;;8.83;100.00;100380.53;4835382;29;20532;-90
2022/12/23 05:17:32;;;;;;;34.73;22.17;;;;;;;8.78;100.00;100384.69;4816624;29;20033;-90
2022/12/23 05:19:57;;;;;;;35.63;22.57;;;;;;;8.82;100.00;100390.47;4833520;29;20380;-90
2022/12/23 05:22:23;;;;;;;38.50;23.63;;;;;;;8.79;100.00;100391.72;4817709;29;20031;-90
2022/12/23 05:24:48;;;;;;;37.60;23.20;;;;;;;8.82;100.00;100403.16;4836993;29;20030;-91
2022/12/23 05:27:14;;;;;;;37.10;24.20;;;;;;;8.77;100.00;100406.47;4833936;29;20046;-90
2022/12/23 05:29:39;;;;;;;38.07;25.37;;;;;;;8.76;100.00;100411.06;4835869;29;20061;-87
2022/12/23 05:32:05;;;;;;;40.03;25.37;;;;;;;8.77;100.00;100422.69;4831257;29;20395;-88
2022/12/23 05:34:32;;;;;;;39.17;26.17;;;;;;;8.77;100.00;100428.94;4835766;29;20052;-88
2022/12/23 05:36:58;;;;;;;42.93;26.70;;;;;;;8.75;100.00;100422.09;4836480;29;20425;-88
2022/12/23 05:39:23;;;;;;;44.80;27.13;;;;;;;8.75;100.00;100427.47;4838501;29;20029;-88
2022/12/23 05:41:49;;;;;;;42.77;28.30;;;;;;;8.76;100.00;100429.97;4835685;29;20029;-88
2022/12/23 05:44:14;;;;;;;47.43;28.63;;;;;;;8.76;100.00;100426.44;4839625;29;20022;-88
2022/12/23 05:46:39;;;;;;;43.30;29.67;;;;;;;8.77;100.00;100433.50;4854099;29;20086;-88
2022/12/23 05:49:05;;;;;;;46.77;30.00;;;;;;;8.76;100.00;100443.47;4856051;29;20036;-90
2022/12/23 05:51:30;;;;;;;44.03;29.93;;;;;;;8.75;100.00;100435.59;4824859;29;20026;-91
2022/12/23 05:53:56;;;;;;;45.97;31.17;;;;;;;8.75;100.00;100438.28;4847484;29;20029;-90
2022/12/23 05:56:21;;;;;;;44.33;29.57;;;;;;;8.73;100.00;100429.56;4856892;29;20060;-92
2022/12/23 05:58:47;;;;;;;46.30;30.43;;;;;;;8.75;100.00;100436.41;4847903;29;20092;-91
2022/12/23 06:01:12;;;;;;;43.93;29.77;;;;;;;8.76;100.00;100429.97;4837116;29;20450;-88
2022/12/23 06:03:38;;;;;;;45.17;30.30;;;;;;;8.76;100.00;100418.34;4855295;29;20368;-88
2022/12/23 06:06:03;;;;;;;43.67;28.93;;;;;;;8.76;100.00;100413.75;4851454;29;20032;-87
2022/12/23 06:08:29;;;;;;;41.03;28.37;;;;;;;8.76;100.00;100411.06;4852861;29;20036;-88
2022/12/23 06:10:54;;;;;;;42.60;29.37;;;;;;;8.75;100.00;100403.19;4822086;29;20037;-88
2022/12/23 06:13:20;;;;;;;42.17;28.37;;;;;;;8.74;100.00;100396.09;4855700;29;20077;-91
2022/12/23 06:15:45;;;;;;;40.53;28.07;;;;;;;8.74;100.00;100394.25;4856115;29;20030;-91
2022/12/23 06:18:11;;;;;;;39.87;27.80;;;;;;;8.74;100.00;100394.25;4848554;29;20402;-91
2022/12/23 06:20:36;;;;;;;41.57;27.97;;;;;;;8.71;100.00;100388.44;4832517;29;20032;-91
2022/12/23 06:23:02;;;;;;;41.57;28.43;;;;;;;8.72;100.00;100393.63;4849323;29;20034;-91
2022/12/23 06:25:27;;;;;;;43.00;28.10;;;;;;;8.76;100.00;100394.84;4838345;29;20492;-88
2022/12/23 06:27:53;;;;;;;44.80;28.60;;;;;;;8.72;100.00;100390.09;4852258;29;20493;-88
2022/12/23 06:30:18;;;;;;;45.67;28.73;;;;;;;8.71;100.00;100393.84;4840634;29;20030;-88
2022/12/23 06:32:44;;;;;;;46.70;29.60;;;;;;;8.72;100.00;100395.50;4851731;29;20037;-88
2022/12/23 06:35:09;;;;;;;44.37;29.70;;;;;;;8.72;100.00;100400.91;4840243;29;20056;-88
2022/12/23 06:37:35;;;;;;;41.90;29.30;;;;;;;8.71;100.00;100400.06;4840629;29;20030;-88
2022/12/23 06:40:00;;;;;;;42.07;28.77;;;;;;;8.70;100.00;100406.50;4856704;29;20025;-88
2022/12/23 06:42:26;;;;;;;45.93;28.97;;;;;;;8.72;100.00;100409.81;4841696;29;20045;-88
2022/12/23 06:44:51;;;;;;;44.30;28.70;;;;;;;8.71;100.00;100404.63;4839462;29;20108;-88
2022/12/23 06:47:17;;;;;;;42.87;27.67;;;;;;;8.72;100.00;100409.81;4835087;29;20041;-88
2022/12/23 06:49:42;;;;;;;40.23;25.87;;;;;;;8.72;100.00;100422.50;4824563;29;20033;-87
2022/12/23 06:52:09;;;;;;;44.33;25.83;;;;;;;8.73;100.00;100425.00;4854267;29;20508;-87
2022/12/23 06:54:34;;;;;;;44.83;27.93;;;;;;;8.73;100.00;100424.16;4849738;29;20044;-88
2022/12/23 06:56:59;;;;;;;46.37;29.10;;;;;;;8.75;100.00;100424.78;4841770;29;20093;-88
2022/12/23 06:59:25;;;;;;;45.07;29.17;;;;;;;8.74;100.00;100429.38;4839183;29;20040;-88
2022/12/23 07:01:50;;;;;;;46.27;27.63;;;;;;;8.73;100.00;100446.59;4853958;29;20483;-88
2022/12/23 07:04:16;;;;;;;41.07;26.73;;;;;;;8.76;100.00;100450.75;4832969;29;20051;-88
2022/12/23 07:06:41;;;;;;;42.23;26.43;;;;;;;8.74;100.00;100463.63;4853970;29;20133;-88
2022/12/23 07:09:07;;;;;;;39.77;25.03;;;;;;;8.72;100.00;100484.63;4835695;29;20041;-88
2022/12/23 07:11:33;;;;;;;37.37;24.10;;;;;;;8.68;100.00;100480.69;4853578;29;20041;-88
2022/12/23 07:13:59;;;;;;;38.03;23.17;;;;;;;8.70;100.00;100486.69;4837519;29;20029;-88
2022/12/23 07:16:25;;;;;;;36.63;23.23;;;;;;;8.67;100.00;100479.03;4839972;29;20058;-88
2022/12/23 07:18:51;;;;;;;35.73;22.40;;;;;;;8.65;100.00;100472.97;4852587;29;20032;-88
2022/12/23 07:21:16;;;;;;;35.53;22.63;;;;;;;8.65;100.00;100465.72;4841429;29;20025;-90
2022/12/23 07:23:41;;;;;;;40.33;24.37;;;;;;;8.65;100.00;100459.47;4841671;29;20033;-90
2022/12/23 07:26:07;;;;;;;42.63;26.20;;;;;;;8.64;100.00;100442.44;4853035;29;20025;-90
2022/12/23 07:28:32;;;;;;;37.00;25.23;;;;;;;8.69;100.00;100456.16;4837365;29;20021;-90
2022/12/23 07:30:57;;;;;;;39.90;27.23;;;;;;;8.67;100.00;100460.13;4831197;29;20025;-90
2022/12/23 07:33:23;;;;;;;42.50;26.63;;;;;;;8.69;100.00;100461.56;4823510;29;20124;-91
2022/12/23 07:35:48;;;;;;;45.17;28.13;;;;;;;8.71;100.00;100453.25;4823612;29;20510;-91
2022/12/23 07:38:14;;;;;;;49.20;30.60;;;;;;;8.72;100.00;100455.75;4814139;29;20046;-90
2022/12/23 07:40:39;;;;;;;51.07;31.83;;;;;;;8.72;100.00;100455.75;4819324;29;20457;-91
2022/12/23 07:43:04;;;;;;;50.80;31.67;;;;;;;8.72;100.00;100444.94;4823313;29;20050;-91
2022/12/23 07:45:30;;;;;;;52.30;32.70;;;;;;;8.68;100.00;100450.97;4819428;29;20116;-91
2022/12/23 07:47:57;;;;;;;53.03;33.00;;;;;;;8.68;100.00;100449.09;4816864;29;20087;-91
2022/12/23 07:50:24;;;;;;;52.63;31.80;;;;;;;8.72;100.00;100454.91;4827880;29;20031;-91
2022/12/23 07:52:50;;;;;;;50.93;30.93;;;;;;;8.74;100.00;100448.28;4837768;29;20045;-91
2022/12/23 07:55:15;;;;;;;51.20;32.53;;;;;;;8.72;100.00;100450.34;4831187;29;20030;-91
2022/12/23 07:57:41;;;;;;;51.37;33.67;;;;;;;8.72;100.00;100436.00;4799900;29;20376;-91
2022/12/23 08:00:08;;;;;;;55.20;33.47;;;;;;;8.71;100.00;100447.84;4821062;29;20124;-91
2022/12/23 08:02:34;;;;;;;53.87;35.83;;;;;;;8.77;100.00;100447.84;4817607;29;20128;-91
2022/12/23 08:04:59;;;;;;;55.57;35.87;;;;;;;8.77;100.00;100450.56;4834558;29;20118;-91
2022/12/23 08:07:25;;;;;;;57.37;37.07;;;;;;;8.77;100.00;100442.44;4835244;29;20030;-91
2022/12/23 08:09:50;;;;;;;59.40;37.47;;;;;;;8.79;100.00;100445.75;4811716;29;20038;-90
2022/12/23 08:12:15;;;;;;;59.20;38.23;;;;;;;8.77;100.00;100444.28;4834798;29;20054;-91
2022/12/23 08:14:41;;;;;;;68.73;41.70;;;;;;;8.77;100.00;100450.56;4819027;29;20030;-91
2022/12/23 08:17:07;;;;;;;68.47;42.73;;;;;;;8.78;100.00;100437.88;4820562;29;20037;-91
2022/12/23 08:19:32;;;;;;;69.87;42.63;;;;;;;8.79;100.00;100444.94;4815247;29;20551;-87
2022/12/23 08:21:58;;;;;;;75.00;44.70;;;;;;;8.75;100.00;100431.00;4835551;29;20083;-88
2022/12/23 08:24:23;;;;;;;71.57;43.70;;;;;;;8.77;100.00;100425.38;4834501;29;20404;-88
2022/12/23 08:26:49;;;;;;;72.90;46.30;;;;;;;8.79;100.00;100423.31;4832125;29;20033;-88
2022/12/23 08:29:14;;;;;;;72.50;45.37;;;;;;;8.77;100.00;100428.09;4814611;29;20030;-88
2022/12/23 08:31:43;;;;;;;75.60;46.07;;;;;;;8.77;100.00;100419.97;4831454;29;20057;-88
2022/12/23 08:34:09;;;;;;;72.90;45.70;;;;;;;8.76;100.00;100410.25;4835577;29;20030;-88
2022/12/23 08:36:35;;;;;;;75.60;44.47;;;;;;;8.78;100.00;100417.09;4848294;29;20113;-88
2022/12/23 08:39:04;;;;;;;67.90;43.23;;;;;;;8.74;100.00;100410.47;4835187;29;20386;-88
2022/12/23 08:41:32;;;;;;;67.57;42.73;;;;;;;8.78;100.00;100427.06;4851184;29;20034;-88
2022/12/23 08:43:58;;;;;;;68.10;43.60;;;;;;;8.78;100.00;100424.34;4845883;29;20030;-87
2022/12/23 08:46:25;;;;;;;68.23;42.97;;;;;;;8.80;100.00;100433.09;4855879;29;20037;-88
2022/12/23 08:48:51;;;;;;;70.93;44.67;;;;;;;8.77;100.00;100431.63;4850968;29;20029;-91
2022/12/23 08:51:19;;;;;;;70.73;43.10;;;;;;;8.77;100.00;100425.38;4855178;29;20112;-91
2022/12/23 08:53:46;;;;;;;72.83;43.37;;;;;;;8.78;100.00;100424.34;4854821;29;20029;-92
2022/12/23 08:56:21;;;;;;;72.63;44.10;;;;;;;8.77;100.00;100422.69;4856547;29;20045;-91
2022/12/23 08:58:49;;;;;;;69.17;41.43;;;;;;;8.74;100.00;100405.06;4846152;29;20034;-91
2022/12/23 09:01:16;;;;;;;59.93;37.67;;;;;;;8.73;100.00;100397.13;4853558;29;20470;-91
2022/12/23 09:03:43;;;;;;;63.63;38.37;;;;;;;8.76;100.00;100385.94;4837533;29;20022;-91
2022/12/23 09:06:12;;;;;;;61.50;37.37;;;;;;;8.74;100.00;100391.56;4853957;29;20022;-91
2022/12/23 09:08:38;;;;;;;56.23;36.13;;;;;;;8.70;100.00;100384.06;4838070;29;20038;-92
2022/12/23 09:11:03;;;;;;;55.57;34.70;;;;;;;8.70;100.00;100394.88;4844009;29;20356;-91
2022/12/23 09:13:29;;;;;;;49.77;31.20;;;;;;;8.73;100.00;100391.75;4844498;29;20069;-91
2022/12/23 09:15:55;;;;;;;49.40;31.43;;;;;;;8.76;100.00;100392.16;4859173;29;20117;-88
2022/12/23 09:18:20;;;;;;;48.03;30.63;;;;;;;8.70;100.00;100375.97;4854484;29;20094;-88
2022/12/23 09:20:46;;;;;;;45.70;29.97;;;;;;;8.70;100.00;100381.38;4840962;29;20574;-88
2022/12/23 09:23:12;;;;;;;49.77;29.37;;;;;;;8.71;100.00;100383.84;4853390;29;20033;-88
2022/12/23 09:25:37;;;;;;;41.73;28.23;;;;;;;8.69;100.00;100372.44;4839979;29;20028;-88
2022/12/23 09:28:05;;;;;;;42.83;28.43;;;;;;;8.70;100.00;100368.69;4855747;29;20021;-88
2022/12/23 09:30:30;;;;;;;42.60;27.90;;;;;;;8.71;100.00;100361.41;4837810;29;20053;-88
2022/12/23 09:32:55;;;;;;;47.43;28.67;;;;;;;8.76;100.00;100358.94;4834973;29;21099;-88
2022/12/23 09:35:21;;;;;;;44.97;27.77;;;;;;;8.77;100.00;100363.25;4838407;29;20712;-88
2022/12/23 09:37:46;;;;;;;43.63;27.77;;;;;;;8.77;100.00;100356.00;4855775;29;20032;-90
2022/12/23 09:40:14;;;;;;;45.90;28.47;;;;;;;8.78;100.00;100351.41;4855672;29;20592;-88
2022/12/23 09:43:16;;;;;;;41.73;27.27;;;;;;;8.81;100.00;100342.88;4853561;29;20086;-87
2022/12/23 09:46:06;;;;;;;44.27;27.80;;;;;;;8.85;100.00;100343.28;4853142;29;20090;-88
2022/12/23 09:48:39;;;;;;;44.10;27.27;;;;;;;8.82;100.00;100339.16;4836907;29;20048;-88
2022/12/23 09:51:07;;;;;;;40.80;26.63;;;;;;;8.82;100.00;100341.03;4838020;29;20033;-88
2022/12/23 09:53:44;;;;;;;41.20;27.13;;;;;;;8.85;100.00;100335.19;4840830;29;20120;-88
2022/12/23 09:56:21;;;;;;;40.47;26.63;;;;;;;8.82;100.00;100325.63;4839032;29;20030;-88
2022/12/23 09:59:24;;;;;;;41.27;26.83;;;;;;;8.85;100.00;100327.91;4837606;29;20030;-88
2022/12/23 10:01:55;;;;;;;43.47;27.10;;;;;;;8.84;100.00;100328.97;4848634;29;20120;-88
2022/12/23 10:04:20;;;;;;;41.73;26.47;;;;;;;8.84;100.00;100333.53;4834564;29;20443;-88
2022/12/23 10:06:55;;;;;;;43.60;25.60;;;;;;;8.84;100.00;100337.06;4841707;29;20127;-88
2022/12/23 10:09:20;;;;;;;36.67;23.20;;;;;;;8.86;100.00;100332.28;4854278;29;20082;-88
2022/12/23 10:11:48;;;;;;;38.60;24.53;;;;;;;8.86;100.00;100339.56;4834210;29;20038;-88
2022/12/23 10:14:22;;;;;;;37.77;22.37;;;;;;;8.88;100.00;100332.91;4856933;29;20025;-88
2022/12/23 10:16:58;;;;;;;35.95;23.30;;;;;;;8.88;100.00;100324.81;4851933;29;20052;-88
2022/12/23 10:19:41;;;;;;;32.90;21.53;;;;;;;8.87;100.00;100303.41;4840206;29;20096;-92
2022/12/23 10:22:15;;;;;;;36.37;23.73;;;;;;;8.86;100.00;100307.97;4839894;29;20044;-92
2022/12/23 10:24:46;;;;;;;32.55;21.25;;;;;;;8.87;100.00;100303.41;4850227;29;20082;-88
2022/12/23 10:27:14;;;;;;;34.07;21.47;;;;;;;8.86;100.00;100299.84;4851510;29;20026;-89
2022/12/23 10:29:40;;;;;;;31.63;20.87;;;;;;;8.82;100.00;100284.31;4833459;29;20037;-88
2022/12/23 10:32:27;;;;;;;35.10;20.50;;;;;;;8.85;100.00;100290.09;4855169;29;20086;-88
2022/12/23 10:35:09;;;;;;;30.20;18.97;;;;;;;8.82;100.00;100282.41;4841848;29;20049;-89
2022/12/23 10:37:50;;;;;;;33.20;20.50;;;;;;;8.83;100.00;100273.28;4838627;29;20040;-88
2022/12/23 10:40:22;;;;;;;30.33;19.20;;;;;;;8.86;100.00;100278.25;4841454;29;20045;-87
2022/12/23 10:42:53;;;;;;;32.07;20.87;;;;;;;8.82;100.00;100276.19;4840004;29;20040;-89
2022/12/23 10:45:32;;;;;;;29.33;19.43;;;;;;;8.83;100.00;100273.28;4834595;29;20043;-89
2022/12/23 10:48:54;;;;;;;29.97;19.77;;;;;;;8.87;100.00;100265.59;4843454;29;20093;-89
2022/12/23 10:51:27;;;;;;;29.73;19.43;;;;;;;8.82;100.00;100250.00;4803578;29;20048;-89
2022/12/23 10:53:58;;;;;;;28.27;18.77;;;;;;;8.82;100.00;100252.69;4816512;29;20041;-88
2022/12/23 10:56:23;;;;;;;30.97;18.63;;;;;;;8.86;100.00;100251.22;4831843;29;20490;-88
2022/12/23 10:58:51;;;;;;;28.77;18.43;;;;;;;8.87;100.00;100244.78;4831373;29;20061;-90
2022/12/23 11:01:25;;;;;;;31.20;18.57;;;;;;;8.85;100.00;100232.53;4840980;29;20777;-95
2022/12/23 11:04:11;;;;;;;30.00;18.83;;;;;;;8.87;100.00;100231.28;4829494;29;20038;-89
2022/12/23 11:06:41;;;;;;;27.10;16.93;;;;;;;8.82;100.00;100214.06;4832211;29;20037;-94
2022/12/23 11:09:15;;;;;;;26.57;17.30;;;;;;;8.82;100.00;100209.47;4833072;29;20037;-91
2022/12/23 11:12:03;;;;;;;28.73;17.77;;;;;;;8.84;100.00;100203.84;4856533;29;20029;-92
2022/12/23 11:14:50;;;;;;;28.03;18.07;;;;;;;8.86;100.00;100210.69;4841660;29;20065;-92
2022/12/23 11:17:30;;;;;;;25.87;17.60;;;;;;;8.85;100.00;100198.22;4836308;29;20479;-92
2022/12/23 11:20:17;;;;;;;25.50;14.10;;;;;;;8.84;100.00;100193.06;4841550;29;20025;-88
2022/12/23 11:22:55;;;;;;;24.00;14.50;;;;;;;8.87;100.00;100204.25;4856692;29;20041;-88
2022/12/23 11:25:28;;;;;;;20.67;13.70;;;;;;;8.86;100.00;100199.91;4851652;29;20559;-89
2022/12/23 11:28:02;;;;;;;21.60;14.50;;;;;;;8.86;100.00;100202.59;4832840;29;20124;-88
2022/12/23 11:30:30;;;;;;;20.92;13.82;;;;;;;8.86;100.00;100186.41;4843387;29;20062;-88
2022/12/23 11:32:55;;;;;;;23.70;13.43;;;;;;;8.85;100.00;100192.84;4850033;29;20093;-88
2022/12/23 11:35:27;;;;;;;23.13;14.37;;;;;;;8.82;100.00;100187.88;4833216;29;20057;-89
2022/12/23 11:37:54;;;;;;;23.60;14.43;;;;;;;8.83;100.00;100178.72;4851947;29;20065;-90
2022/12/23 11:40:27;;;;;;;19.97;13.20;;;;;;;8.79;100.00;100178.31;4853233;29;20090;-89
2022/12/23 11:42:58;;;;;;;26.10;14.87;;;;;;;8.79;100.00;100172.09;4854817;29;20040;-90
2022/12/23 11:45:27;;;;;;;21.20;13.60;;;;;;;8.76;100.00;100165.25;4851390;29;20026;-89